Flight Track Log - Related Links

Times and Time Zones

All times are in EDT time to prevent confusion due to time zone crossing. See the WES8682 flight status page for this flight to view local times or setup timezone preferences in your user account.

Time Position Orientation Groundspeed Altitude Reporting Facility
EDT Latitude Longitude Course Direction KTS MPH feet Rate Location/Type
Tue 02:29:01 PM 18.4333 -65.9833 62° Northeast 100 115 1,100  Level San Juan Center
Tue 02:30:02 PM 18.4500 -65.9500 62° Northeast 130 150 2,100 992 Climbing San Juan Center
Tue 02:31:02 PM 18.4667 -65.9000 71° East 150 173 3,100 1,000 Climbing San Juan Center
Tue 02:32:02 PM 18.4833 -65.8667 62° Northeast 130 150 4,100 992 Climbing San Juan Center
Tue 02:33:03 PM 18.5167 -65.8333 43° Northeast 140 161 5,100 992 Climbing San Juan Center
Tue 02:34:03 PM 18.5333 -65.8000 62° Northeast 150 173 6,100 1,050 Climbing San Juan Center
Tue 02:35:03 PM 18.5500 -65.7500 71° East 160 184 7,200 1,100 Climbing San Juan Center
Tue 02:36:03 PM 18.5667 -65.7167 62° Northeast 160 184 8,300 1,091 Climbing San Juan Center
Tue 02:37:04 PM 18.5833 -65.6833 62° Northeast 150 173 9,400 843 Climbing San Juan Center
Tue 02:38:04 PM 18.6000 -65.6500 62° Northeast 150 173 10,000 400 Climbing San Juan Center
Tue 02:39:04 PM 18.5833 -65.5833 105° East 180 207 10,200 496 Climbing San Juan Center
Tue 02:40:05 PM 18.5833 -65.5333 90° East 170 196 11,000 397 Climbing San Juan Center
Tue 02:41:05 PM 18.5833 -65.4833 90° East 190 219 11,000  Level San Juan Center
Tue 02:42:05 PM 18.5667 -65.4333 109° East 200 230 11,000  Level San Juan Center
Tue 02:43:06 PM 18.5667 -65.3667 90° East 200 230 11,000  Level San Juan Center
Tue 02:44:06 PM 18.5667 -65.3000 90° East 200 230 11,000  Level San Juan Center
Tue 02:45:06 PM 18.5500 -65.2500 109° East 210 242 11,000  Level San Juan Center
Tue 02:46:07 PM 18.5500 -65.1833 90° East 200 230 11,000  Level San Juan Center
Tue 02:47:07 PM 18.5500 -65.1333 90° East 210 242 11,000  Level San Juan Center
Tue 02:48:07 PM 18.5333 -65.0667 105° East 200 230 11,000  Level San Juan Center
Tue 02:49:08 PM 18.5333 -65.0167 90° East 200 230 11,000  Level San Juan Center
Tue 02:50:08 PM 18.5333 -64.9500 90° East 210 242 11,000  Level San Juan Center
Tue 02:51:08 PM 18.5167 -64.8833 105° East 200 230 11,000  Level San Juan Center
Tue 02:52:09 PM 18.5167 -64.8333 90° East 200 230 11,000  Level San Juan Center
Tue 02:53:09 PM 18.5000 -64.7667 105° East 200 230 11,000  Level San Juan Center
Tue 02:54:09 PM 18.5000 -64.7167 90° East 200 230 11,000  Level San Juan Center
Tue 02:55:09 PM 18.5000 -64.6500 90° East 200 230 11,000  Level San Juan Center
Tue 02:56:10 PM 18.4833 -64.5833 105° East 210 242 11,000  Level San Juan Center
Tue 02:57:10 PM 18.4833 -64.5333 90° East 200 230 11,000  Level San Juan Center
Tue 02:58:10 PM 18.4667 -64.4833 109° East 200 230 11,000  Level San Juan Center
Tue 02:59:11 PM 18.4667 -64.4167 90° East 190 219 11,000  Level San Juan Center
Tue 03:01:11 PM 18.4500 -64.3000 99° East 180 207 11,000  Level San Juan Center
Tue 03:02:12 PM 18.4500 -64.2500 90° East 200 230 11,000  Level San Juan Center
Tue 03:03:12 PM 18.4500 -64.1833 90° East 210 242 11,000  Level San Juan Center
Tue 03:04:12 PM 18.4500 -64.1333 90° East 200 230 11,000  Level San Juan Center
Tue 03:05:13 PM 18.4333 -64.0667 105° East 200 230 11,000  Level San Juan Center
Tue 03:06:13 PM 18.4333 -64.0167 90° East 190 219 11,000  Level San Juan Center
Tue 03:07:13 PM 18.4167 -63.9500 105° East 200 230 11,000  Level San Juan Center
Tue 03:08:13 PM 18.4167 -63.9000 90° East 200 230 11,000  Level San Juan Center
Tue 03:09:13 PM 18.4167 -63.8333 90° East 200 230 11,000  Level San Juan Center
Tue 03:10:14 PM 18.4000 -63.7667 105° East 220 253 11,000  Level San Juan Center
Tue 03:11:14 PM 18.3833 -63.7167 109° East 200 230 11,000  Level San Juan Center
Tue 03:12:14 PM 18.3833 -63.6500 90° East 190 219 11,000  Level San Juan Center
Tue 03:14:00 PM 18.3555 -63.5566 107° East  Level Estimated
Tue 03:21:00 PM 18.2446 -63.1871 107° East  Level Estimated
Tue 03:22:00 PM 18.2287 -63.1343 108° East  Level Estimated
Tue 03:23:00 PM 18.2128 -63.0816 108° East  Level Estimated
Tue 03:24:00 PM 18.2048 -63.0551 108° East  Level Estimated
Tue 03:25:00 PM 18.2048 -63.0551 316° Northwest  Level Estimated
Tue 03:26:00 PM 18.2048 -63.0551 316° Northwest  Level Estimated
Tue 03:27:00 PM 18.2048 -63.0551 316° Northwest  Level Estimated
Tue 03:28:00 PM 18.2048 -63.0551 316° Northwest  Level Estimated
Tue 03:29:00 PM 18.2048 -63.0551 316° Northwest  Level Estimated
Tue 03:30:00 PM 18.2048 -63.0551 316° Northwest  Level Estimated
Tue 03:31:00 PM 18.2048 -63.0551 316° Northwest  Level Estimated
Tue 03:32:00 PM 18.2048 -63.0551 316° Northwest  Level Estimated
Tue 03:33:00 PM 18.2048 -63.0551 316° Northwest  Level Estimated
Tue 03:34:00 PM 18.2048 -63.0551 316° Northwest  Level Estimated
Tue 03:35:00 PM 18.2048 -63.0551 316° Northwest  Level Estimated
Tue 03:36:00 PM 18.2048 -63.0551 316° Northwest  Level Estimated
Tue 03:37:00 PM 18.2048 -63.0551 316° Northwest  Level Estimated
Tue 03:38:00 PM 18.2048 -63.0551 316° Northwest  Level Estimated
Tue 03:39:00 PM 18.2048 -63.0551 316° Northwest  Level Estimated
Tue 03:40:00 PM 18.2048 -63.0551 316° Northwest  Level Estimated
Tue 03:41:00 PM 18.2048 -63.0551 316° Northwest  Level Estimated
Tue 03:42:00 PM 18.2048 -63.0551 316° Northwest  Level Estimated
Tue 03:43:00 PM 18.2048 -63.0551 316° Northwest  Level Estimated

Login

Don't have an account? Register now (free) for customized features, flight alerts, and more!